Time;durP1;ratioP1;P1;durP2;ratioP2;P2;SDS_P1;SDS_P2;PMS_P1;PMS_P2;Temp;Humidity;BMP_temperature;BMP_pressure;BME280_temperature;BME280_humidity;BME280_pressure;Samples;Min_cycle;Max_cycle;Signal;HPM_P1;HPM_P2
2020/12/04 00:00:47;;;;;;;0.90;0.90;;;;;;;22.03;36.47;98272.22;4974356;28;97414;-53
2020/12/04 00:03:12;;;;;;;0.82;0.65;;;;;;;22.02;36.78;98271.38;4975320;28;111276;-53
2020/12/04 00:05:38;;;;;;;0.80;0.60;;;;;;;22.02;36.52;98265.25;4977943;28;97391;-53
2020/12/04 00:08:03;;;;;;;0.70;0.50;;;;;;;22.02;36.54;98265.25;4975665;28;127290;-53
2020/12/04 00:10:29;;;;;;;0.85;0.70;;;;;;;22.02;36.55;98262.59;4976147;28;106354;-53
2020/12/04 00:12:54;;;;;;;0.93;0.80;;;;;;;22.03;36.84;98259.81;4986741;28;97198;-53
2020/12/04 00:15:21;;;;;;;1.08;0.70;;;;;;;22.03;36.49;98251.00;4974413;28;110016;-53
2020/12/04 00:17:46;;;;;;;0.93;0.60;;;;;;;22.01;36.75;98245.84;4973271;28;119497;-53
2020/12/04 00:20:12;;;;;;;0.95;0.60;;;;;;;22.02;36.76;98236.88;4976079;28;112900;-53
2020/12/04 00:22:37;;;;;;;0.88;0.68;;;;;;;22.01;36.34;98232.56;4976836;28;97045;-53
2020/12/04 00:25:03;;;;;;;0.82;0.55;;;;;;;22.02;36.69;98225.44;4972260;28;96727;-53
2020/12/04 00:27:28;;;;;;;0.70;0.50;;;;;;;22.02;36.29;98225.44;4973924;28;126975;-53
2020/12/04 00:29:54;;;;;;;1.02;0.80;;;;;;;22.02;36.27;98220.13;4973707;28;126270;-53
2020/12/04 00:32:19;;;;;;;0.82;0.70;;;;;;;22.02;36.63;98220.13;5010022;22;97418;-94
2020/12/04 00:34:45;;;;;;;1.45;0.75;;;;;;;22.02;36.65;98209.50;4942754;28;96012;-94
2020/12/04 00:37:11;;;;;;;0.88;0.70;;;;;;;22.03;36.45;98216.50;4941140;28;129442;-95
2020/12/04 00:39:37;;;;;;;0.75;0.60;;;;;;;22.03;36.36;98209.41;4942969;28;99219;-94
2020/12/04 00:42:02;;;;;;;0.80;0.65;;;;;;;22.02;36.20;98199.72;4939327;28;95915;-94
2020/12/04 00:44:28;;;;;;;0.70;0.70;;;;;;;22.03;36.45;98198.78;4927007;28;96084;-94
2020/12/04 00:46:53;;;;;;;1.00;0.80;;;;;;;22.02;36.28;98185.63;4922829;28;105912;-94
2020/12/04 00:49:19;;;;;;;1.13;0.90;;;;;;;22.02;36.22;98186.47;4940710;28;99207;-95
2020/12/04 00:51:45;;;;;;;1.13;0.98;;;;;;;22.02;36.05;98177.66;4938591;28;95938;-95
2020/12/04 00:54:14;;;;;;;1.25;1.00;;;;;;;22.02;36.18;98172.34;4923214;28;96422;-94
2020/12/04 00:56:39;;;;;;;0.88;0.80;;;;;;;22.02;36.03;98175.00;4922504;28;100579;-94
2020/12/04 00:59:19;;;;;;;1.10;0.77;;;;;;;22.02;36.33;98170.53;4922498;28;97475;-94
2020/12/04 01:01:44;;;;;;;0.80;0.80;;;;;;;22.02;36.52;98167.03;4921833;28;101842;-95
2020/12/04 01:04:10;;;;;;;1.35;0.98;;;;;;;22.01;36.18;98162.69;4938045;28;113297;-93
2020/12/04 01:06:36;;;;;;;1.08;0.98;;;;;;;22.02;36.04;98156.44;4933811;28;99261;-94
2020/12/04 01:09:04;;;;;;;0.80;0.60;;;;;;;22.01;36.18;98160.91;4944947;28;98877;-94
2020/12/04 01:11:31;;;;;;;1.52;0.65;;;;;;;22.01;35.97;98152.06;4921947;28;95938;-93
2020/12/04 01:13:56;;;;;;;1.02;0.93;;;;;;;22.01;36.27;98146.75;4923005;28;96679;-95
2020/12/04 01:16:22;;;;;;;1.10;0.70;;;;;;;22.01;36.22;98138.81;4923781;28;113503;-94
2020/12/04 01:18:47;;;;;;;0.90;0.75;;;;;;;22.01;36.14;98141.44;4921832;28;98557;-94
2020/12/04 01:21:13;;;;;;;0.80;0.80;;;;;;;22.01;35.90;98139.66;4937117;28;113337;-94
2020/12/04 01:23:39;;;;;;;0.98;0.88;;;;;;;22.00;36.29;98135.31;4936205;28;102202;-94
2020/12/04 01:26:04;;;;;;;1.63;1.00;;;;;;;22.02;36.14;98119.28;4921510;28;98920;-95
2020/12/04 01:28:30;;;;;;;1.15;0.85;;;;;;;22.01;35.96;98117.56;4923532;28;99018;-94
2020/12/04 01:30:55;;;;;;;1.20;1.10;;;;;;;22.01;36.01;98118.44;4921360;28;111778;-94
2020/12/04 01:33:21;;;;;;;0.93;0.88;;;;;;;22.01;35.94;98112.25;4920650;28;96560;-94
2020/12/04 01:35:46;;;;;;;0.95;0.88;;;;;;;22.02;36.16;98113.97;4936511;28;99157;-94
2020/12/04 01:38:11;;;;;;;1.10;1.00;;;;;;;22.01;35.90;98097.19;4921133;28;99997;-94
2020/12/04 01:40:37;;;;;;;0.90;0.80;;;;;;;22.01;35.75;98101.66;4916963;28;104875;-94
2020/12/04 01:43:02;;;;;;;0.68;0.57;;;;;;;22.01;35.79;98102.50;4937250;28;96688;-95
2020/12/04 01:45:28;;;;;;;0.90;0.80;;;;;;;22.02;35.97;98098.03;4923585;28;121026;-94
2020/12/04 01:47:56;;;;;;;1.10;1.00;;;;;;;22.02;35.74;98100.69;4938869;28;99027;-94
2020/12/04 01:50:24;;;;;;;1.30;1.20;;;;;;;22.01;36.04;98088.38;4910149;28;96431;-95
2020/12/04 01:52:50;;;;;;;0.82;0.60;;;;;;;22.01;35.89;98085.72;4941955;28;97571;-95
2020/12/04 01:55:15;;;;;;;1.38;0.90;;;;;;;22.02;35.84;98087.41;4940527;28;99438;-94
2020/12/04 01:57:43;;;;;;;0.95;0.82;;;;;;;22.01;35.79;98075.09;4923373;28;99052;-95
2020/12/04 02:00:09;;;;;;;1.02;0.90;;;;;;;22.01;35.67;98075.97;4923431;28;95928;-94
2020/12/04 02:02:37;;;;;;;0.80;0.70;;;;;;;22.01;35.70;98080.41;4941907;28;96036;-95
2020/12/04 02:05:03;;;;;;;0.82;0.82;;;;;;;22.00;35.63;98070.78;4927062;28;127183;-95
2020/12/04 02:07:34;;;;;;;0.80;0.65;;;;;;;22.00;35.81;98071.63;4926460;28;99697;-95
2020/12/04 02:10:28;;;;;;;1.25;0.70;;;;;;;22.00;35.65;98063.66;4941475;28;95888;-94
2020/12/04 02:12:54;;;;;;;1.10;0.85;;;;;;;21.99;35.99;98053.97;4943393;28;96516;-95
2020/12/04 02:15:19;;;;;;;0.70;0.60;;;;;;;21.99;35.66;98050.50;4926650;28;99066;-94
2020/12/04 02:17:45;;;;;;;0.82;0.70;;;;;;;22.01;35.78;98046.78;4926708;28;99789;-94
2020/12/04 02:20:11;;;;;;;1.10;0.88;;;;;;;22.00;35.85;98045.06;4911382;28;95919;-94
2020/12/04 02:22:37;;;;;;;0.93;0.70;;;;;;;22.00;35.53;98028.31;4944610;28;96005;-95
2020/12/04 02:25:04;;;;;;;0.70;0.60;;;;;;;21.99;35.54;98027.44;4926643;28;99463;-94
2020/12/04 02:27:30;;;;;;;0.85;0.60;;;;;;;22.01;35.89;98025.53;4941490;28;100275;-94
2020/12/04 02:29:55;;;;;;;0.90;0.90;;;;;;;22.01;35.46;98019.38;4924796;28;95943;-94
2020/12/04 02:32:21;;;;;;;0.93;0.80;;;;;;;22.01;35.69;98009.63;4941926;28;96052;-94
2020/12/04 02:34:46;;;;;;;0.85;0.75;;;;;;;22.00;35.51;97997.31;4924859;28;99044;-94
2020/12/04 02:37:11;;;;;;;0.80;0.70;;;;;;;22.02;35.61;97990.06;4941679;28;110686;-94
2020/12/04 02:39:39;;;;;;;1.23;1.13;;;;;;;22.02;35.44;97989.22;4923468;28;100059;-94
2020/12/04 02:42:05;;;;;;;1.27;0.70;;;;;;;22.01;35.39;97985.72;4942586;28;95953;-94
2020/12/04 02:44:30;;;;;;;1.02;0.90;;;;;;;22.02;35.65;97979.44;4942169;28;99060;-94
2020/12/04 02:46:56;;;;;;;1.10;1.00;;;;;;;22.01;35.50;97977.78;4924722;28;126323;-94
2020/12/04 02:49:21;;;;;;;0.80;0.75;;;;;;;22.00;35.31;97973.41;4938324;28;107919;-94
2020/12/04 02:51:47;;;;;;;1.15;1.05;;;;;;;22.00;35.71;97975.25;4925606;28;96018;-95
2020/12/04 02:54:13;;;;;;;0.68;0.57;;;;;;;22.01;35.63;97969.81;4958695;28;99125;-94
2020/12/04 02:56:39;;;;;;;0.80;0.75;;;;;;;22.01;35.61;97958.31;4925841;28;98935;-94
2020/12/04 02:59:04;;;;;;;1.10;0.80;;;;;;;22.01;35.46;97958.31;4939936;28;109481;-94
2020/12/04 03:01:29;;;;;;;0.85;0.85;;;;;;;22.01;35.42;97961.84;4925705;28;96322;-94
2020/12/04 03:03:55;;;;;;;0.82;0.73;;;;;;;22.00;35.32;97946.88;4924818;28;106412;-94
2020/12/04 03:06:20;;;;;;;1.23;0.93;;;;;;;22.01;35.45;97955.69;4922616;28;122091;-95
2020/12/04 03:08:46;;;;;;;0.80;0.70;;;;;;;22.02;35.42;97946.75;4941254;28;96281;-94
2020/12/04 03:11:11;;;;;;;0.60;0.50;;;;;;;22.01;35.40;97934.44;4923155;28;112028;-94
2020/12/04 03:13:37;;;;;;;0.93;0.93;;;;;;;22.00;35.56;97938.91;4924198;28;99205;-94
2020/12/04 03:16:02;;;;;;;1.05;0.98;;;;;;;22.02;35.20;97944.09;4908408;28;98834;-96
2020/12/04 03:18:28;;;;;;;0.70;0.65;;;;;;;22.01;35.29;97934.44;4923270;28;107946;-94
2020/12/04 03:20:53;;;;;;;1.20;1.10;;;;;;;22.01;35.32;97930.00;4924011;28;96808;-94
2020/12/04 03:23:19;;;;;;;0.93;0.82;;;;;;;22.02;35.26;97925.53;4938508;28;128547;-94
2020/12/04 03:25:44;;;;;;;0.77;0.70;;;;;;;22.02;35.57;97933.50;4923011;28;99912;-94
2020/12/04 03:28:10;;;;;;;1.00;0.80;;;;;;;22.00;35.53;97927.47;4923034;28;95917;-94
2020/12/04 03:30:35;;;;;;;1.00;1.00;;;;;;;22.00;35.46;97927.47;4921644;28;96535;-95
2020/12/04 03:33:01;;;;;;;0.82;0.73;;;;;;;22.01;35.32;97929.13;4923045;28;99172;-95
2020/12/04 03:35:26;;;;;;;0.77;0.77;;;;;;;22.01;35.52;97926.47;4936021;28;99251;-94
2020/12/04 03:37:51;;;;;;;0.90;0.70;;;;;;;22.01;35.02;97937.97;4923881;28;96352;-94
2020/12/04 03:40:17;;;;;;;0.90;0.70;;;;;;;22.00;35.37;97944.22;4922046;28;96266;-94
2020/12/04 03:42:42;;;;;;;0.90;0.80;;;;;;;22.00;35.20;97930.13;4926541;28;116606;-94
2020/12/04 03:45:08;;;;;;;1.17;1.08;;;;;;;22.00;35.30;97949.53;4925573;28;126006;-94
2020/12/04 03:47:36;;;;;;;1.30;1.20;;;;;;;22.00;35.20;97932.78;4926462;28;95803;-94
2020/12/04 03:50:02;;;;;;;0.70;0.52;;;;;;;22.00;35.26;97914.19;4939486;28;96073;-95
2020/12/04 03:52:27;;;;;;;1.00;0.85;;;;;;;22.01;35.25;97939.75;4922068;28;99163;-95
2020/12/04 03:54:53;;;;;;;0.80;0.63;;;;;;;22.02;35.44;97938.78;4922670;28;98940;-94
2020/12/04 03:57:18;;;;;;;1.00;0.90;;;;;;;22.01;35.06;97937.09;4939650;28;96808;-93
2020/12/04 03:59:44;;;;;;;0.88;0.70;;;;;;;22.00;35.22;97930.94;4910491;28;108007;-94
2020/12/04 04:02:09;;;;;;;0.70;0.60;;;;;;;22.02;35.37;97914.91;4937419;28;99185;-95
2020/12/04 04:04:35;;;;;;;0.70;0.60;;;;;;;22.00;35.33;97917.69;4932036;28;112855;-95
2020/12/04 04:07:02;;;;;;;0.77;0.73;;;;;;;22.02;35.26;97922.88;4921132;28;105142;-94
2020/12/04 04:09:28;;;;;;;0.80;0.55;;;;;;;22.01;35.19;97916.72;4923168;28;95967;-95
2020/12/04 04:11:53;;;;;;;1.33;1.23;;;;;;;22.02;35.37;97920.22;4922258;28;99175;-94
2020/12/04 04:14:19;;;;;;;1.25;1.08;;;;;;;22.02;35.12;97920.22;4921610;28;99152;-94
2020/12/04 04:16:44;;;;;;;0.60;0.50;;;;;;;22.03;35.08;97924.53;4918098;28;112062;-95
2020/12/04 04:19:09;;;;;;;0.80;0.75;;;;;;;22.02;35.19;97923.72;4922651;28;95907;-95
2020/12/04 04:21:39;;;;;;;0.60;0.50;;;;;;;22.02;34.93;97925.53;4931690;28;126420;-94
2020/12/04 04:24:07;;;;;;;0.73;0.73;;;;;;;22.02;35.30;97930.84;4922401;28;98905;-95
2020/12/04 04:26:33;;;;;;;0.75;0.65;;;;;;;22.01;35.33;97930.00;4921872;28;95958;-94
2020/12/04 04:28:58;;;;;;;0.70;0.60;;;;;;;22.01;35.17;97937.97;4918884;28;96730;-95
2020/12/04 04:31:24;;;;;;;0.70;0.63;;;;;;;22.02;34.84;97936.97;4919704;28;98987;-94
2020/12/04 04:33:49;;;;;;;0.75;0.60;;;;;;;22.00;35.18;97933.59;4936979;28;99134;-94
2020/12/04 04:36:15;;;;;;;0.80;0.70;;;;;;;22.02;35.16;97928.19;4936530;28;102403;-94
2020/12/04 04:38:40;;;;;;;0.60;0.50;;;;;;;22.01;34.96;97935.31;4921431;28;104401;-95
2020/12/04 04:41:06;;;;;;;0.60;0.60;;;;;;;22.00;35.20;97938.91;4919294;28;126322;-94
2020/12/04 04:43:33;;;;;;;0.60;0.45;;;;;;;22.02;34.87;97946.75;4921670;28;98963;-93
2020/12/04 04:46:34;;;;;;;1.05;1.00;;;;;;;22.01;35.20;97937.09;4935032;28;96685;-94
2020/12/04 04:49:02;;;;;;;1.05;0.93;;;;;;;22.00;34.81;97935.44;4945053;28;96168;-93
2020/12/04 04:51:28;;;;;;;0.60;0.50;;;;;;;22.00;34.97;97933.59;4920833;28;99267;-93
2020/12/04 04:53:55;;;;;;;0.43;0.43;;;;;;;22.00;34.86;97941.56;4919674;28;99020;-94
2020/12/04 04:56:21;;;;;;;0.63;0.60;;;;;;;22.01;35.18;97935.31;4937140;28;95962;-95
2020/12/04 04:58:46;;;;;;;1.05;0.80;;;;;;;22.02;35.12;97938.78;4921284;28;96587;-94
2020/12/04 05:01:12;;;;;;;0.70;0.70;;;;;;;22.01;35.29;97926.47;4920736;28;98996;-94
2020/12/04 05:03:37;;;;;;;0.57;0.57;;;;;;;22.01;35.14;97934.44;4921187;28;127889;-95
2020/12/04 05:06:03;;;;;;;0.70;0.65;;;;;;;22.01;35.08;97931.78;4935583;28;95814;-94
2020/12/04 05:08:28;;;;;;;0.60;0.60;;;;;;;22.01;35.45;97929.13;4920738;28;96059;-94
2020/12/04 05:11:09;;;;;;;0.75;0.75;;;;;;;22.01;34.73;97931.78;4916219;28;126333;-94
2020/12/04 05:13:35;;;;;;;0.60;0.40;;;;;;;22.00;34.98;97923.00;4921272;28;99002;-94
2020/12/04 05:16:00;;;;;;;0.82;0.82;;;;;;;22.01;35.20;97907.91;4918994;28;96503;-94
2020/12/04 05:18:26;;;;;;;0.63;0.57;;;;;;;22.01;35.19;97914.06;4920591;28;96062;-94
2020/12/04 05:20:55;;;;;;;1.65;1.17;;;;;;;22.00;34.97;97914.19;4922088;28;117585;-94
2020/12/04 05:23:21;;;;;;;0.50;0.50;;;;;;;22.00;34.88;97917.69;4939477;28;99062;-94
2020/12/04 05:25:48;;;;;;;1.02;0.95;;;;;;;22.01;34.92;97919.38;4924066;28;96513;-95
2020/12/04 05:28:19;;;;;;;0.60;0.60;;;;;;;22.01;34.77;97932.66;4924382;28;96793;-94
2020/12/04 05:30:46;;;;;;;0.85;0.85;;;;;;;22.02;34.92;97925.53;4938617;28;99342;-94
2020/12/04 05:33:12;;;;;;;0.60;0.50;;;;;;;22.01;34.93;97922.03;4907564;28;99034;-94
2020/12/04 05:35:38;;;;;;;0.50;0.40;;;;;;;22.00;34.96;97928.31;4937654;28;95848;-94
2020/12/04 05:38:14;;;;;;;0.63;0.50;;;;;;;22.00;34.87;97924.81;4937137;28;95994;-94
2020/12/04 05:40:50;;;;;;;0.55;0.55;;;;;;;22.01;34.67;97945.06;4939150;28;100541;-94
2020/12/04 05:43:28;;;;;;;0.60;0.50;;;;;;;22.01;34.99;97937.09;4922438;28;99158;-94
2020/12/04 05:46:10;;;;;;;0.90;0.90;;;;;;;22.01;34.99;97950.38;4924941;28;96367;-95
2020/12/04 05:48:36;;;;;;;1.13;0.40;;;;;;;22.00;34.91;97938.91;4943700;28;96065;-95
2020/12/04 05:51:01;;;;;;;0.50;0.40;;;;;;;22.01;34.72;97947.72;4923037;28;126319;-94
2020/12/04 05:53:27;;;;;;;0.80;0.77;;;;;;;22.02;35.04;97944.09;4923174;28;125562;-94
2020/12/04 05:55:54;;;;;;;0.85;0.85;;;;;;;22.01;35.04;97947.72;4924124;28;96509;-94
2020/12/04 05:58:19;;;;;;;0.82;0.82;;;;;;;22.02;34.78;97949.41;4922012;28;96467;-94
2020/12/04 06:00:44;;;;;;;0.88;0.88;;;;;;;22.02;34.97;97952.91;4921812;28;126012;-94
2020/12/04 06:03:10;;;;;;;0.65;0.65;;;;;;;22.01;34.94;97953.88;4940168;28;99029;-94
2020/12/04 06:05:35;;;;;;;0.50;0.50;;;;;;;22.02;34.93;97952.06;4939331;28;111515;-94
2020/12/04 06:08:05;;;;;;;0.57;0.47;;;;;;;22.02;34.93;97957.38;4922924;28;96490;-95
2020/12/04 06:10:34;;;;;;;1.02;0.63;;;;;;;22.02;34.92;97954.72;4922578;28;99443;-94
2020/12/04 06:13:01;;;;;;;0.60;0.60;;;;;;;22.02;34.77;97966.16;4918063;28;98844;-94
2020/12/04 06:15:31;;;;;;;0.60;0.60;;;;;;;22.02;34.65;97958.22;4933386;28;96297;-94
2020/12/04 06:18:04;;;;;;;0.52;0.40;;;;;;;22.02;34.74;97958.22;4918880;28;96045;-95
2020/12/04 06:20:39;;;;;;;0.50;0.40;;;;;;;22.01;34.78;97967.16;4918938;28;99301;-95
2020/12/04 06:23:14;;;;;;;0.57;0.57;;;;;;;22.02;34.71;97965.34;4949904;28;98945;-94
2020/12/04 06:25:49;;;;;;;0.40;0.35;;;;;;;22.02;34.93;97981.25;4943966;28;95871;-94
2020/12/04 06:28:40;;;;;;;;;;;;;;;;;;;;;
2020/12/04 06:35:04;;;;;;;1.10;0.40;;;;;;;22.01;34.68;97984.88;5026419;22;97761;-57
2020/12/04 06:37:48;;;;;;;0.65;0.40;;;;;;;22.00;34.70;97986.69;4968782;28;96898;-57
2020/12/04 06:40:24;;;;;;;0.50;0.30;;;;;;;22.01;34.61;97992.84;4994133;28;111346;-57
2020/12/04 06:42:50;;;;;;;0.50;0.40;;;;;;;22.02;34.72;97994.53;4994323;28;97501;-58
2020/12/04 06:45:15;;;;;;;0.80;0.50;;;;;;;22.00;34.64;98005.25;4991300;28;98615;-57
2020/12/04 06:47:41;;;;;;;0.30;0.30;;;;;;;22.01;34.84;98000.78;4979299;28;96823;-57
2020/12/04 06:50:06;;;;;;;0.40;0.35;;;;;;;22.01;34.75;97993.69;4984486;28;112242;-57
2020/12/04 06:52:32;;;;;;;0.45;0.25;;;;;;;22.01;34.97;97996.34;4994209;28;97693;-57
2020/12/04 06:54:57;;;;;;;0.52;0.40;;;;;;;22.01;34.84;98006.97;4994752;28;97278;-57
2020/12/04 06:57:23;;;;;;;0.40;0.30;;;;;;;22.02;34.55;98007.81;4990922;28;97534;-57
2020/12/04 06:59:48;;;;;;;0.70;0.50;;;;;;;22.02;34.48;98005.16;4990165;28;96931;-57
2020/12/04 07:02:21;;;;;;;0.60;0.22;;;;;;;22.01;34.64;98020.22;4986245;28;126756;-57
2020/12/04 07:04:47;;;;;;;0.70;0.50;;;;;;;22.02;34.85;98013.94;4991544;28;97138;-57
2020/12/04 07:07:20;;;;;;;0.45;0.35;;;;;;;22.02;34.88;98013.09;4996074;28;96721;-57
2020/12/04 07:09:59;;;;;;;0.50;0.40;;;;;;;22.03;34.79;98013.00;4995077;28;97193;-57
2020/12/04 07:12:26;;;;;;;0.55;0.43;;;;;;;22.03;34.69;98023.59;4990206;28;97561;-57
2020/12/04 07:14:55;;;;;;;0.60;0.40;;;;;;;22.03;34.88;98036.00;4994066;28;97220;-57
2020/12/04 07:17:22;;;;;;;0.47;0.40;;;;;;;22.03;34.64;98023.59;4988163;28;111971;-57
2020/12/04 07:19:48;;;;;;;0.50;0.50;;;;;;;22.03;34.79;98039.53;4989490;28;96793;-57
2020/12/04 07:22:17;;;;;;;0.57;0.47;;;;;;;22.04;34.85;98035.06;4993590;28;116774;-57
2020/12/04 07:24:43;;;;;;;0.45;0.35;;;;;;;22.04;34.59;98043.03;4990040;28;98035;-57
2020/12/04 07:27:09;;;;;;;0.57;0.50;;;;;;;22.04;34.48;98048.31;4988098;28;97295;-57
2020/12/04 07:29:37;;;;;;;0.40;0.38;;;;;;;22.04;34.64;98057.13;4989888;28;97523;-57
2020/12/04 07:32:03;;;;;;;0.40;0.40;;;;;;;22.04;34.80;98065.09;4990280;28;98352;-57
2020/12/04 07:34:29;;;;;;;0.50;0.50;;;;;;;22.05;34.53;98068.59;4990441;28;126546;-57
2020/12/04 07:36:55;;;;;;;1.23;0.40;;;;;;;22.05;34.59;98068.59;4992622;28;96831;-57
2020/12/04 07:39:33;;;;;;;0.80;0.40;;;;;;;22.05;34.37;98068.59;4992937;28;96645;-57
2020/12/04 07:42:00;;;;;;;0.55;0.35;;;;;;;22.05;34.44;98074.75;4985465;28;97529;-57
2020/12/04 07:44:32;;;;;;;0.40;0.40;;;;;;;22.05;34.43;98087.19;4959719;28;97309;-57
2020/12/04 07:47:01;;;;;;;0.70;0.45;;;;;;;22.05;34.56;98096.00;4991765;28;96977;-57
2020/12/04 07:49:27;;;;;;;0.60;0.50;;;;;;;22.05;34.70;98089.84;4993137;28;97324;-57
2020/12/04 07:51:52;;;;;;;0.50;0.40;;;;;;;22.05;34.55;98111.91;4989557;28;97460;-57
2020/12/04 07:54:21;;;;;;;0.60;0.45;;;;;;;22.04;34.38;98099.59;4975362;28;98515;-57
2020/12/04 07:56:50;;;;;;;0.50;0.30;;;;;;;22.05;34.42;98108.41;4976595;28;96859;-57
2020/12/04 07:59:16;;;;;;;0.95;0.30;;;;;;;22.04;34.66;98126.13;4992040;28;96984;-57
2020/12/04 08:01:42;;;;;;;0.30;0.25;;;;;;;22.05;34.45;98137.63;4968722;28;126935;-58
2020/12/04 08:04:08;;;;;;;0.38;0.30;;;;;;;22.04;34.41;98133.25;4977403;28;97048;-57
2020/12/04 08:06:34;;;;;;;0.50;0.38;;;;;;;22.05;34.60;98142.94;4989962;28;96734;-57
2020/12/04 08:09:11;;;;;;;0.30;0.30;;;;;;;22.03;34.71;98144.81;4992488;28;96730;-58
2020/12/04 08:11:47;;;;;;;0.40;0.40;;;;;;;22.03;34.69;98151.00;4991637;28;97514;-57
2020/12/04 08:14:14;;;;;;;0.45;0.30;;;;;;;22.03;34.66;98158.97;4977445;28;97324;-57
2020/12/04 08:16:39;;;;;;;2.60;0.40;;;;;;;22.04;34.64;98162.47;4959232;28;96751;-57
2020/12/04 08:19:11;;;;;;;0.50;0.50;;;;;;;22.04;34.50;98160.63;4995663;28;96701;-58
2020/12/04 08:22:07;;;;;;;0.38;0.30;;;;;;;22.04;34.46;98165.13;4995022;28;97842;-57
2020/12/04 08:24:36;;;;;;;0.90;0.38;;;;;;;22.03;34.86;98171.38;4989562;28;97137;-57
2020/12/04 08:27:06;;;;;;;0.50;0.30;;;;;;;22.03;34.52;98153.66;4976607;28;96877;-57
2020/12/04 08:29:33;;;;;;;0.57;0.40;;;;;;;22.04;34.83;98171.25;4993997;28;97322;-57
2020/12/04 08:32:08;;;;;;;0.40;0.40;;;;;;;22.04;34.84;98165.13;4992974;28;98002;-57
2020/12/04 08:34:34;;;;;;;0.45;0.30;;;;;;;22.04;34.85;98165.94;4992240;28;97211;-57
2020/12/04 08:37:08;;;;;;;0.80;0.38;;;;;;;22.04;34.66;98160.63;4993508;28;98057;-57
2020/12/04 08:39:43;;;;;;;;;;;;;;;22.01;34.63;98155.59;4976899;28;97916;-57
2020/12/04 08:42:33;;;;;;;1.25;0.50;;;;;;;22.01;34.91;98160.03;4989792;28;97748;-57
2020/12/04 08:45:08;;;;;;;0.70;0.40;;;;;;;22.02;34.75;98169.69;4984051;28;96994;-57
2020/12/04 08:47:35;;;;;;;0.50;0.30;;;;;;;22.02;34.79;98175.84;4976305;28;96839;-58
2020/12/04 08:50:14;;;;;;;0.77;0.38;;;;;;;22.02;34.52;98159.91;4992547;28;96693;-58
2020/12/04 08:52:42;;;;;;;0.77;0.30;;;;;;;22.03;34.35;98169.59;4990075;28;97277;-57
2020/12/04 08:55:12;;;;;;;0.30;0.30;;;;;;;22.04;34.75;98168.59;4989534;28;97606;-57
2020/12/04 08:57:38;;;;;;;0.30;0.30;;;;;;;22.04;34.77;98176.56;4983338;28;96647;-57
2020/12/04 09:00:08;;;;;;;0.52;0.30;;;;;;;22.05;34.39;98196.84;4981776;28;97183;-57
2020/12/04 09:02:34;;;;;;;0.40;0.30;;;;;;;22.05;34.72;98199.50;4980226;28;97556;-57
2020/12/04 09:05:00;;;;;;;4.38;0.52;;;;;;;22.07;34.92;98204.69;4978873;28;98468;-58
2020/12/04 09:07:25;;;;;;;0.60;0.30;;;;;;;22.08;34.87;98205.53;4984993;28;96834;-57
2020/12/04 09:09:50;;;;;;;6.43;0.55;;;;;;;22.08;35.02;98210.84;4986715;28;111776;-57
2020/12/04 09:12:16;;;;;;;1.38;0.50;;;;;;;22.08;34.74;98211.69;4986285;28;97404;-57
2020/12/04 09:14:41;;;;;;;2.63;0.40;;;;;;;22.08;34.74;98211.69;4988154;28;126326;-57
2020/12/04 09:17:07;;;;;;;3.13;0.50;;;;;;;22.10;34.60;98214.22;4954615;28;101529;-58
2020/12/04 09:19:32;;;;;;;0.98;0.50;;;;;;;22.10;34.90;98216.88;4986153;28;99495;-57
2020/12/04 09:21:58;;;;;;;0.90;0.50;;;;;;;22.10;34.99;98223.03;4986415;28;117362;-58
2020/12/04 09:24:24;;;;;;;1.25;0.40;;;;;;;22.10;34.77;98225.66;4971062;28;126522;-58
2020/12/04 09:26:49;;;;;;;1.30;0.50;;;;;;;22.10;34.66;98228.31;4990231;28;96789;-58
2020/12/04 09:29:14;;;;;;;1.13;0.43;;;;;;;22.10;34.62;98227.50;4983483;28;112490;-57
2020/12/04 09:31:40;;;;;;;3.78;0.50;;;;;;;22.10;34.79;98238.94;4989769;28;126762;-57
2020/12/04 09:34:06;;;;;;;2.47;0.60;;;;;;;22.11;34.60;98251.28;4986632;28;126631;-58
2020/12/04 09:36:31;;;;;;;1.13;0.40;;;;;;;22.11;34.56;98256.56;4993921;28;97226;-57
2020/12/04 09:38:57;;;;;;;1.00;0.40;;;;;;;22.11;35.03;98261.06;4985086;28;97176;-58
2020/12/04 09:41:22;;;;;;;2.17;0.60;;;;;;;22.12;34.94;98271.56;4991774;28;126871;-57
2020/12/04 09:43:48;;;;;;;1.58;0.30;;;;;;;22.12;34.73;98260.94;4988277;28;97275;-58
2020/12/04 09:46:13;;;;;;;1.67;0.50;;;;;;;22.11;34.63;98280.47;4983594;28;97182;-57
2020/12/04 09:48:39;;;;;;;0.95;0.40;;;;;;;22.11;34.88;98283.13;4987709;28;96775;-57
2020/12/04 09:51:04;;;;;;;2.80;0.93;;;;;;;22.11;34.66;98275.16;4985199;28;126690;-58
2020/12/04 09:53:30;;;;;;;1.10;0.40;;;;;;;22.11;34.82;98261.88;4988030;28;110150;-57
2020/12/04 09:55:56;;;;;;;1.15;0.77;;;;;;;22.10;34.84;98270.81;4989057;28;112819;-57
2020/12/04 09:58:21;;;;;;;1.85;0.40;;;;;;;22.10;34.70;98276.09;4988906;28;96845;-58
2020/12/04 10:00:47;;;;;;;2.03;0.40;;;;;;;22.11;34.76;98275.16;4970300;28;126612;-57
2020/12/04 10:03:12;;;;;;;0.70;0.43;;;;;;;22.12;34.79;98278.66;4970081;28;105906;-57
2020/12/04 10:05:38;;;;;;;0.50;0.30;;;;;;;22.11;34.92;98277.81;4992017;28;111990;-57
2020/12/04 10:08:03;;;;;;;0.60;0.40;;;;;;;22.12;34.68;98295.44;4996209;28;96810;-57
2020/12/04 10:10:29;;;;;;;1.08;0.50;;;;;;;22.11;34.86;98296.41;4995027;28;126742;-57
2020/12/04 10:12:54;;;;;;;0.98;0.30;;;;;;;22.12;34.69;98292.78;4986719;28;125918;-55
2020/12/04 10:15:20;;;;;;;2.20;0.40;;;;;;;22.13;34.55;98297.13;4987871;28;112915;-57
2020/12/04 10:17:45;;;;;;;1.55;0.38;;;;;;;22.13;34.78;98297.13;4997281;28;98165;-57
2020/12/04 10:20:11;;;;;;;0.70;0.35;;;;;;;22.13;34.43;98307.75;4993292;28;126761;-57
2020/12/04 10:22:36;;;;;;;0.80;0.30;;;;;;;22.13;34.81;98307.75;4984207;28;126164;-57
2020/12/04 10:25:02;;;;;;;3.00;0.35;;;;;;;22.13;34.35;98302.44;4996072;28;110485;-57
2020/12/04 10:27:27;;;;;;;1.88;0.40;;;;;;;22.14;34.43;98303.28;4982470;28;96811;-57
2020/12/04 10:29:53;;;;;;;1.23;0.32;;;;;;;22.14;34.32;98313.88;4975710;28;126776;-56
2020/12/04 10:32:20;;;;;;;1.55;0.50;;;;;;;22.14;34.32;98304.13;4979839;28;126587;-57
2020/12/04 10:34:46;;;;;;;0.80;0.40;;;;;;;22.15;34.26;98312.94;4998029;28;97021;-56
2020/12/04 10:37:12;;;;;;;1.73;0.30;;;;;;;22.14;34.24;98312.09;4996652;28;96997;-57
2020/12/04 10:39:38;;;;;;;0.50;0.20;;;;;;;22.14;34.40;98324.50;4966176;28;98564;-57
2020/12/04 10:42:03;;;;;;;2.75;0.40;;;;;;;22.15;34.16;98324.41;4984890;28;110404;-57
2020/12/04 10:44:32;;;;;;;0.47;0.40;;;;;;;22.15;33.96;98331.53;4994971;28;109695;-57
2020/12/04 10:46:59;;;;;;;0.52;0.35;;;;;;;22.14;33.94;98320.06;4995743;28;96644;-57
2020/12/04 10:49:24;;;;;;;0.38;0.28;;;;;;;22.16;33.84;98327.91;4981524;28;122138;-57
2020/12/04 10:51:56;;;;;;;0.68;0.40;;;;;;;22.15;33.93;98328.88;4988898;28;126531;-57
2020/12/04 10:54:21;;;;;;;0.70;0.30;;;;;;;22.15;34.09;98344.78;4987833;28;97214;-57
2020/12/04 10:56:47;;;;;;;1.27;0.38;;;;;;;22.14;33.77;98332.47;4987373;28;97254;-56
2020/12/04 10:59:12;;;;;;;0.40;0.20;;;;;;;22.14;34.24;98321.84;4977302;28;115460;-57
2020/12/04 11:01:43;;;;;;;1.13;0.32;;;;;;;22.14;33.78;98319.19;4977944;28;126613;-57
2020/12/04 11:06:55;;;;;;;0.85;0.30;;;;;;;22.13;33.66;98338.75;4991910;28;98330;-57
2020/12/04 11:09:20;;;;;;;0.57;0.38;;;;;;;22.12;33.43;98340.56;4995725;28;100720;-57
2020/12/04 11:11:46;;;;;;;0.95;0.30;;;;;;;22.12;33.79;98342.38;4992398;28;127222;-57
2020/12/04 11:14:12;;;;;;;0.30;0.30;;;;;;;22.12;33.42;98337.94;4992416;28;111992;-57
2020/12/04 11:16:41;;;;;;;1.35;0.52;;;;;;;22.13;33.53;98338.75;4995747;28;98403;-57
2020/12/04 11:19:10;;;;;;;0.57;0.50;;;;;;;22.12;33.38;98343.22;4984307;28;97525;-57
2020/12/04 11:21:36;;;;;;;2.53;0.40;;;;;;;22.12;33.47;98351.19;4993599;28;97194;-56
2020/12/04 11:24:01;;;;;;;2.92;0.95;;;;;;;22.12;33.40;98358.28;4992177;28;97238;-57
2020/12/04 11:26:27;;;;;;;1.98;0.68;;;;;;;22.12;33.32;98353.84;4992620;28;111724;-57
2020/12/04 11:28:52;;;;;;;1.75;0.40;;;;;;;22.12;33.27;98358.28;4994295;28;102640;-57
2020/12/04 11:31:18;;;;;;;1.30;0.30;;;;;;;22.10;33.26;98366.38;4978612;28;97261;-57
2020/12/04 11:33:44;;;;;;;1.33;0.40;;;;;;;22.11;33.58;98369.88;4982430;28;96912;-57
2020/12/04 11:36:09;;;;;;;1.45;0.32;;;;;;;22.11;33.58;98367.22;4973850;28;97299;-57
2020/12/04 11:38:34;;;;;;;0.60;0.30;;;;;;;22.10;33.13;98371.66;4995190;28;97438;-57